sensor_id;sensor_type;location;lat;lon;timestamp;temperature;humidity
5408;DHT22;2727;53.582;9.946;2022-07-29T00:00:00;20.10;63.70
5408;DHT22;2727;53.582;9.946;2022-07-29T00:00:58;20.10;63.70
5408;DHT22;2727;53.582;9.946;2022-07-29T00:01:57;20.10;63.70
5408;DHT22;2727;53.582;9.946;2022-07-29T00:02:55;20.10;63.70
5408;DHT22;2727;53.582;9.946;2022-07-29T00:03:54;20.10;63.70
5408;DHT22;2727;53.582;9.946;2022-07-29T00:04:52;20.10;63.70
5408;DHT22;2727;53.582;9.946;2022-07-29T00:05:51;20.10;63.80
5408;DHT22;2727;53.582;9.946;2022-07-29T00:06:53;20.10;63.80
5408;DHT22;2727;53.582;9.946;2022-07-29T00:07:51;20.10;63.80
5408;DHT22;2727;53.582;9.946;2022-07-29T00:08:50;20.10;63.80
5408;DHT22;2727;53.582;9.946;2022-07-29T00:09:48;20.10;63.80
5408;DHT22;2727;53.582;9.946;2022-07-29T00:10:47;20.00;63.70
5408;DHT22;2727;53.582;9.946;2022-07-29T00:11:45;20.10;63.90
5408;DHT22;2727;53.582;9.946;2022-07-29T00:12:44;20.10;63.80
5408;DHT22;2727;53.582;9.946;2022-07-29T00:13:43;20.10;63.80
5408;DHT22;2727;53.582;9.946;2022-07-29T00:14:41;20.10;63.80
5408;DHT22;2727;53.582;9.946;2022-07-29T00:15:40;20.10;63.80
5408;DHT22;2727;53.582;9.946;2022-07-29T00:16:38;20.00;63.70
5408;DHT22;2727;53.582;9.946;2022-07-29T00:17:37;20.10;63.90
5408;DHT22;2727;53.582;9.946;2022-07-29T00:18:35;20.10;63.80
5408;DHT22;2727;53.582;9.946;2022-07-29T00:19:34;20.00;63.70
5408;DHT22;2727;53.582;9.946;2022-07-29T00:20:32;20.10;63.80
5408;DHT22;2727;53.582;9.946;2022-07-29T00:21:31;20.00;63.70
5408;DHT22;2727;53.582;9.946;2022-07-29T00:22:29;20.00;63.80
5408;DHT22;2727;53.582;9.946;2022-07-29T00:23:27;20.00;63.70
5408;DHT22;2727;53.582;9.946;2022-07-29T00:24:26;20.00;63.70
5408;DHT22;2727;53.582;9.946;2022-07-29T00:25:24;20.00;63.70
5408;DHT22;2727;53.582;9.946;2022-07-29T00:26:23;20.00;63.70
5408;DHT22;2727;53.582;9.946;2022-07-29T00:27:21;20.00;63.80
5408;DHT22;2727;53.582;9.946;2022-07-29T00:28:20;20.00;63.80
5408;DHT22;2727;53.582;9.946;2022-07-29T00:29:18;20.00;63.80
5408;DHT22;2727;53.582;9.946;2022-07-29T00:30:17;20.00;63.70
5408;DHT22;2727;53.582;9.946;2022-07-29T00:31:15;20.00;63.70
5408;DHT22;2727;53.582;9.946;2022-07-29T00:32:14;20.00;63.80
5408;DHT22;2727;53.582;9.946;2022-07-29T00:33:12;20.00;63.80
5408;DHT22;2727;53.582;9.946;2022-07-29T00:34:11;20.10;63.90
5408;DHT22;2727;53.582;9.946;2022-07-29T00:35:28;20.10;63.80
5408;DHT22;2727;53.582;9.946;2022-07-29T00:36:41;20.00;63.90
5408;DHT22;2727;53.582;9.946;2022-07-29T00:37:40;20.00;63.80
5408;DHT22;2727;53.582;9.946;2022-07-29T00:38:38;20.00;63.80
5408;DHT22;2727;53.582;9.946;2022-07-29T00:39:37;20.00;63.80
5408;DHT22;2727;53.582;9.946;2022-07-29T00:40:35;20.00;63.80
5408;DHT22;2727;53.582;9.946;2022-07-29T00:41:34;20.00;63.80
5408;DHT22;2727;53.582;9.946;2022-07-29T00:42:42;20.00;63.90
5408;DHT22;2727;53.582;9.946;2022-07-29T00:43:41;20.00;63.90
5408;DHT22;2727;53.582;9.946;2022-07-29T00:44:40;20.00;63.80
5408;DHT22;2727;53.582;9.946;2022-07-29T00:45:41;20.00;63.80
5408;DHT22;2727;53.582;9.946;2022-07-29T00:46:39;20.00;63.90
5408;DHT22;2727;53.582;9.946;2022-07-29T00:47:38;20.00;63.80
5408;DHT22;2727;53.582;9.946;2022-07-29T00:48:36;20.00;63.80
5408;DHT22;2727;53.582;9.946;2022-07-29T00:49:35;20.00;63.80
5408;DHT22;2727;53.582;9.946;2022-07-29T00:50:34;20.00;63.80
5408;DHT22;2727;53.582;9.946;2022-07-29T00:51:37;20.00;63.80
5408;DHT22;2727;53.582;9.946;2022-07-29T00:52:36;20.00;63.90
5408;DHT22;2727;53.582;9.946;2022-07-29T00:53:34;20.00;63.90
5408;DHT22;2727;53.582;9.946;2022-07-29T00:54:34;20.00;64.60
5408;DHT22;2727;53.582;9.946;2022-07-29T00:55:32;20.00;63.90
5408;DHT22;2727;53.582;9.946;2022-07-29T00:56:31;20.00;63.90
5408;DHT22;2727;53.582;9.946;2022-07-29T00:57:30;20.00;63.90
5408;DHT22;2727;53.582;9.946;2022-07-29T00:58:29;20.00;63.90
5408;DHT22;2727;53.582;9.946;2022-07-29T00:59:28;20.00;63.90
5408;DHT22;2727;53.582;9.946;2022-07-29T01:00:27;20.00;64.00
5408;DHT22;2727;53.582;9.946;2022-07-29T01:01:26;20.00;64.00
5408;DHT22;2727;53.582;9.946;2022-07-29T01:02:25;20.00;64.00
5408;DHT22;2727;53.582;9.946;2022-07-29T01:03:23;20.00;64.00
5408;DHT22;2727;53.582;9.946;2022-07-29T01:04:22;20.00;63.90
5408;DHT22;2727;53.582;9.946;2022-07-29T01:05:21;20.00;63.90
5408;DHT22;2727;53.582;9.946;2022-07-29T01:06:21;20.00;64.00
5408;DHT22;2727;53.582;9.946;2022-07-29T01:07:19;20.00;64.00
5408;DHT22;2727;53.582;9.946;2022-07-29T01:08:18;20.00;64.00
5408;DHT22;2727;53.582;9.946;2022-07-29T01:09:17;20.00;63.90
5408;DHT22;2727;53.582;9.946;2022-07-29T01:10:16;20.00;63.90
5408;DHT22;2727;53.582;9.946;2022-07-29T01:11:15;20.00;64.00
5408;DHT22;2727;53.582;9.946;2022-07-29T01:12:16;20.00;64.00
5408;DHT22;2727;53.582;9.946;2022-07-29T01:13:17;20.00;64.00
5408;DHT22;2727;53.582;9.946;2022-07-29T01:14:15;20.00;64.00
5408;DHT22;2727;53.582;9.946;2022-07-29T01:15:15;20.00;64.00
5408;DHT22;2727;53.582;9.946;2022-07-29T01:16:15;20.00;64.00
5408;DHT22;2727;53.582;9.946;2022-07-29T01:17:20;20.00;64.60
5408;DHT22;2727;53.582;9.946;2022-07-29T01:18:21;20.00;64.10
5408;DHT22;2727;53.582;9.946;2022-07-29T01:20:36;20.00;64.00
5408;DHT22;2727;53.582;9.946;2022-07-29T01:23:59;20.00;64.00
5408;DHT22;2727;53.582;9.946;2022-07-29T01:29:31;20.00;64.00
5408;DHT22;2727;53.582;9.946;2022-07-29T01:30:30;20.00;64.10
5408;DHT22;2727;53.582;9.946;2022-07-29T01:32:47;20.00;64.00
5408;DHT22;2727;53.582;9.946;2022-07-29T01:33:50;20.00;64.00
5408;DHT22;2727;53.582;9.946;2022-07-29T01:34:56;20.00;64.00
5408;DHT22;2727;53.582;9.946;2022-07-29T01:35:55;20.00;64.00
5408;DHT22;2727;53.582;9.946;2022-07-29T01:36:55;20.00;64.10
5408;DHT22;2727;53.582;9.946;2022-07-29T01:38:00;20.00;64.10
5408;DHT22;2727;53.582;9.946;2022-07-29T01:39:19;20.00;64.10
5408;DHT22;2727;53.582;9.946;2022-07-29T01:40:22;20.00;64.00
5408;DHT22;2727;53.582;9.946;2022-07-29T01:41:23;20.00;64.00
5408;DHT22;2727;53.582;9.946;2022-07-29T01:43:52;20.00;64.10
5408;DHT22;2727;53.582;9.946;2022-07-29T01:46:08;20.00;64.10
5408;DHT22;2727;53.582;9.946;2022-07-29T01:47:10;20.00;64.10
5408;DHT22;2727;53.582;9.946;2022-07-29T01:48:11;20.00;64.10
5408;DHT22;2727;53.582;9.946;2022-07-29T01:49:13;20.00;64.20
5408;DHT22;2727;53.582;9.946;2022-07-29T01:50:14;20.00;64.00
5408;DHT22;2727;53.582;9.946;2022-07-29T01:51:14;20.00;64.10
5408;DHT22;2727;53.582;9.946;2022-07-29T01:54:49;20.00;64.10
5408;DHT22;2727;53.582;9.946;2022-07-29T01:55:49;20.00;64.00
5408;DHT22;2727;53.582;9.946;2022-07-29T01:56:49;20.00;64.10
5408;DHT22;2727;53.582;9.946;2022-07-29T01:57:49;20.00;64.10
5408;DHT22;2727;53.582;9.946;2022-07-29T01:58:48;20.00;64.10
5408;DHT22;2727;53.582;9.946;2022-07-29T01:59:47;20.00;64.10
5408;DHT22;2727;53.582;9.946;2022-07-29T02:00:46;20.00;64.10
5408;DHT22;2727;53.582;9.946;2022-07-29T02:01:46;19.90;64.00
5408;DHT22;2727;53.582;9.946;2022-07-29T02:02:46;20.00;64.10
5408;DHT22;2727;53.582;9.946;2022-07-29T02:03:45;20.00;64.10
5408;DHT22;2727;53.582;9.946;2022-07-29T02:04:44;20.00;64.10
5408;DHT22;2727;53.582;9.946;2022-07-29T02:05:46;20.00;64.10
5408;DHT22;2727;53.582;9.946;2022-07-29T02:06:46;19.90;64.00
5408;DHT22;2727;53.582;9.946;2022-07-29T02:07:46;19.90;64.00
5408;DHT22;2727;53.582;9.946;2022-07-29T02:08:45;20.00;64.10
5408;DHT22;2727;53.582;9.946;2022-07-29T02:09:45;19.90;64.00
5408;DHT22;2727;53.582;9.946;2022-07-29T02:10:44;19.90;64.00
5408;DHT22;2727;53.582;9.946;2022-07-29T02:11:44;20.00;64.10
5408;DHT22;2727;53.582;9.946;2022-07-29T02:12:45;20.00;64.00
5408;DHT22;2727;53.582;9.946;2022-07-29T02:13:44;19.90;64.00
5408;DHT22;2727;53.582;9.946;2022-07-29T02:14:44;19.90;63.90
5408;DHT22;2727;53.582;9.946;2022-07-29T02:15:44;19.90;63.90
5408;DHT22;2727;53.582;9.946;2022-07-29T02:16:42;20.00;64.10
5408;DHT22;2727;53.582;9.946;2022-07-29T02:17:43;19.90;63.90
5408;DHT22;2727;53.582;9.946;2022-07-29T02:18:43;19.90;64.00
5408;DHT22;2727;53.582;9.946;2022-07-29T02:19:43;20.00;64.80
5408;DHT22;2727;53.582;9.946;2022-07-29T02:20:47;20.00;64.10
5408;DHT22;2727;53.582;9.946;2022-07-29T02:21:46;19.90;64.00
5408;DHT22;2727;53.582;9.946;2022-07-29T02:22:45;20.00;64.20
5408;DHT22;2727;53.582;9.946;2022-07-29T02:23:44;20.00;64.10
5408;DHT22;2727;53.582;9.946;2022-07-29T02:24:44;20.00;64.10
5408;DHT22;2727;53.582;9.946;2022-07-29T02:25:42;19.90;64.00
5408;DHT22;2727;53.582;9.946;2022-07-29T02:26:41;20.00;64.00
5408;DHT22;2727;53.582;9.946;2022-07-29T02:27:41;19.90;63.90
5408;DHT22;2727;53.582;9.946;2022-07-29T02:28:40;20.00;64.10
5408;DHT22;2727;53.582;9.946;2022-07-29T02:29:39;20.00;64.00
5408;DHT22;2727;53.582;9.946;2022-07-29T02:30:39;20.00;64.10
5408;DHT22;2727;53.582;9.946;2022-07-29T02:31:38;20.00;64.10
5408;DHT22;2727;53.582;9.946;2022-07-29T02:32:39;20.00;64.00
5408;DHT22;2727;53.582;9.946;2022-07-29T02:33:37;19.90;63.90
5408;DHT22;2727;53.582;9.946;2022-07-29T02:34:38;20.00;64.10
5408;DHT22;2727;53.582;9.946;2022-07-29T02:35:38;20.00;64.00
5408;DHT22;2727;53.582;9.946;2022-07-29T02:36:38;19.90;63.80
5408;DHT22;2727;53.582;9.946;2022-07-29T02:37:37;20.00;64.00
5408;DHT22;2727;53.582;9.946;2022-07-29T02:38:36;20.00;64.00
5408;DHT22;2727;53.582;9.946;2022-07-29T02:39:52;19.90;64.00
5408;DHT22;2727;53.582;9.946;2022-07-29T02:40:51;20.00;64.80
5408;DHT22;2727;53.582;9.946;2022-07-29T02:41:52;19.90;63.90
5408;DHT22;2727;53.582;9.946;2022-07-29T02:42:53;20.00;64.00
5408;DHT22;2727;53.582;9.946;2022-07-29T02:43:53;19.90;64.00
5408;DHT22;2727;53.582;9.946;2022-07-29T02:44:53;19.90;63.90
5408;DHT22;2727;53.582;9.946;2022-07-29T02:45:52;20.00;64.00
5408;DHT22;2727;53.582;9.946;2022-07-29T02:46:57;20.00;64.00
5408;DHT22;2727;53.582;9.946;2022-07-29T02:47:57;20.00;64.00
5408;DHT22;2727;53.582;9.946;2022-07-29T02:48:58;19.90;63.90
5408;DHT22;2727;53.582;9.946;2022-07-29T02:50:00;20.00;64.10
5408;DHT22;2727;53.582;9.946;2022-07-29T02:51:03;19.90;64.00
5408;DHT22;2727;53.582;9.946;2022-07-29T02:52:04;19.90;63.90
5408;DHT22;2727;53.582;9.946;2022-07-29T02:53:15;20.00;64.20
5408;DHT22;2727;53.582;9.946;2022-07-29T02:54:21;20.00;64.10
5408;DHT22;2727;53.582;9.946;2022-07-29T02:56:31;19.90;63.90
5408;DHT22;2727;53.582;9.946;2022-07-29T02:57:37;19.90;64.00
5408;DHT22;2727;53.582;9.946;2022-07-29T02:58:38;19.90;63.90
5408;DHT22;2727;53.582;9.946;2022-07-29T02:59:37;19.90;63.90
5408;DHT22;2727;53.582;9.946;2022-07-29T03:00:39;19.90;64.00
5408;DHT22;2727;53.582;9.946;2022-07-29T03:01:40;19.90;63.90
5408;DHT22;2727;53.582;9.946;2022-07-29T03:02:42;19.90;63.90
5408;DHT22;2727;53.582;9.946;2022-07-29T03:03:43;19.90;63.90
5408;DHT22;2727;53.582;9.946;2022-07-29T03:04:43;19.90;63.90
5408;DHT22;2727;53.582;9.946;2022-07-29T03:05:42;19.90;63.90
5408;DHT22;2727;53.582;9.946;2022-07-29T03:06:40;19.90;63.90
5408;DHT22;2727;53.582;9.946;2022-07-29T03:07:39;20.00;64.10
5408;DHT22;2727;53.582;9.946;2022-07-29T03:08:39;19.90;63.90
5408;DHT22;2727;53.582;9.946;2022-07-29T03:09:38;19.90;63.90
5408;DHT22;2727;53.582;9.946;2022-07-29T03:10:37;20.00;64.10
5408;DHT22;2727;53.582;9.946;2022-07-29T03:11:37;19.90;63.90
5408;DHT22;2727;53.582;9.946;2022-07-29T03:12:36;19.90;64.00
5408;DHT22;2727;53.582;9.946;2022-07-29T03:13:35;19.90;63.90
5408;DHT22;2727;53.582;9.946;2022-07-29T03:14:34;19.90;64.00
5408;DHT22;2727;53.582;9.946;2022-07-29T03:15:33;19.90;64.00
5408;DHT22;2727;53.582;9.946;2022-07-29T03:16:32;19.90;63.90
5408;DHT22;2727;53.582;9.946;2022-07-29T03:17:31;19.90;64.10
5408;DHT22;2727;53.582;9.946;2022-07-29T03:18:30;19.90;63.90
5408;DHT22;2727;53.582;9.946;2022-07-29T03:19:29;19.90;63.90
5408;DHT22;2727;53.582;9.946;2022-07-29T03:20:27;19.90;63.90
5408;DHT22;2727;53.582;9.946;2022-07-29T03:21:26;19.90;63.90
5408;DHT22;2727;53.582;9.946;2022-07-29T03:22:25;19.90;63.90
5408;DHT22;2727;53.582;9.946;2022-07-29T03:23:23;19.90;63.90
5408;DHT22;2727;53.582;9.946;2022-07-29T03:24:34;19.90;63.90
5408;DHT22;2727;53.582;9.946;2022-07-29T03:25:32;19.90;64.00
5408;DHT22;2727;53.582;9.946;2022-07-29T03:26:31;19.90;63.90
5408;DHT22;2727;53.582;9.946;2022-07-29T03:27:29;19.90;64.00
5408;DHT22;2727;53.582;9.946;2022-07-29T03:28:28;19.90;64.00
5408;DHT22;2727;53.582;9.946;2022-07-29T03:29:27;19.90;64.00
5408;DHT22;2727;53.582;9.946;2022-07-29T03:30:26;20.00;64.10
5408;DHT22;2727;53.582;9.946;2022-07-29T03:31:25;19.90;64.00
5408;DHT22;2727;53.582;9.946;2022-07-29T03:32:23;19.90;63.90
5408;DHT22;2727;53.582;9.946;2022-07-29T03:33:22;19.90;64.00
5408;DHT22;2727;53.582;9.946;2022-07-29T03:34:20;19.90;64.00
5408;DHT22;2727;53.582;9.946;2022-07-29T03:35:19;19.90;64.00
5408;DHT22;2727;53.582;9.946;2022-07-29T03:36:18;19.90;64.00
5408;DHT22;2727;53.582;9.946;2022-07-29T03:37:16;19.90;64.00
5408;DHT22;2727;53.582;9.946;2022-07-29T03:38:15;19.90;64.00
5408;DHT22;2727;53.582;9.946;2022-07-29T03:39:16;19.90;64.00
5408;DHT22;2727;53.582;9.946;2022-07-29T03:40:20;19.90;64.00
5408;DHT22;2727;53.582;9.946;2022-07-29T03:41:19;19.90;64.00
5408;DHT22;2727;53.582;9.946;2022-07-29T03:42:20;19.90;63.90
5408;DHT22;2727;53.582;9.946;2022-07-29T03:43:21;19.90;63.90
5408;DHT22;2727;53.582;9.946;2022-07-29T03:44:22;19.90;64.00
5408;DHT22;2727;53.582;9.946;2022-07-29T03:45:21;19.90;63.90
5408;DHT22;2727;53.582;9.946;2022-07-29T03:46:20;19.90;63.90
5408;DHT22;2727;53.582;9.946;2022-07-29T03:47:22;19.90;64.00
5408;DHT22;2727;53.582;9.946;2022-07-29T03:48:21;19.90;63.90
5408;DHT22;2727;53.582;9.946;2022-07-29T03:49:21;19.90;63.90
5408;DHT22;2727;53.582;9.946;2022-07-29T03:50:19;19.90;63.90
5408;DHT22;2727;53.582;9.946;2022-07-29T03:51:19;19.90;63.90
5408;DHT22;2727;53.582;9.946;2022-07-29T03:52:17;19.90;64.00
5408;DHT22;2727;53.582;9.946;2022-07-29T03:53:16;19.90;64.00
5408;DHT22;2727;53.582;9.946;2022-07-29T03:54:14;19.90;63.90
5408;DHT22;2727;53.582;9.946;2022-07-29T03:55:13;19.90;64.00
5408;DHT22;2727;53.582;9.946;2022-07-29T03:56:12;19.90;63.90
5408;DHT22;2727;53.582;9.946;2022-07-29T03:57:13;19.90;64.00
5408;DHT22;2727;53.582;9.946;2022-07-29T03:58:13;19.90;64.00
5408;DHT22;2727;53.582;9.946;2022-07-29T03:59:13;19.90;63.90
5408;DHT22;2727;53.582;9.946;2022-07-29T04:00:12;19.90;63.90
5408;DHT22;2727;53.582;9.946;2022-07-29T04:01:10;19.90;64.00
5408;DHT22;2727;53.582;9.946;2022-07-29T04:02:10;19.90;63.90
5408;DHT22;2727;53.582;9.946;2022-07-29T04:03:09;19.90;64.10
5408;DHT22;2727;53.582;9.946;2022-07-29T04:04:08;19.90;64.00
5408;DHT22;2727;53.582;9.946;2022-07-29T04:05:11;19.90;63.90
5408;DHT22;2727;53.582;9.946;2022-07-29T04:06:10;19.90;64.00
5408;DHT22;2727;53.582;9.946;2022-07-29T04:07:11;19.90;64.00
5408;DHT22;2727;53.582;9.946;2022-07-29T04:08:09;19.90;64.00
5408;DHT22;2727;53.582;9.946;2022-07-29T04:09:08;19.90;64.00
5408;DHT22;2727;53.582;9.946;2022-07-29T04:10:07;19.90;64.00
5408;DHT22;2727;53.582;9.946;2022-07-29T04:11:06;19.90;64.10
5408;DHT22;2727;53.582;9.946;2022-07-29T04:12:05;19.90;64.00
5408;DHT22;2727;53.582;9.946;2022-07-29T04:13:03;19.90;64.00
5408;DHT22;2727;53.582;9.946;2022-07-29T04:14:02;19.90;64.60
5408;DHT22;2727;53.582;9.946;2022-07-29T04:15:01;19.90;64.00
5408;DHT22;2727;53.582;9.946;2022-07-29T04:15:59;19.90;64.00
5408;DHT22;2727;53.582;9.946;2022-07-29T04:16:58;19.90;64.00
5408;DHT22;2727;53.582;9.946;2022-07-29T04:17:57;19.90;64.00
5408;DHT22;2727;53.582;9.946;2022-07-29T04:18:56;19.90;64.00
5408;DHT22;2727;53.582;9.946;2022-07-29T04:19:54;19.90;64.00
5408;DHT22;2727;53.582;9.946;2022-07-29T04:20:53;19.90;63.90
5408;DHT22;2727;53.582;9.946;2022-07-29T04:21:52;19.90;64.20
5408;DHT22;2727;53.582;9.946;2022-07-29T04:22:50;19.90;64.00
5408;DHT22;2727;53.582;9.946;2022-07-29T04:23:49;19.90;64.00
5408;DHT22;2727;53.582;9.946;2022-07-29T04:24:50;19.90;64.00
5408;DHT22;2727;53.582;9.946;2022-07-29T04:25:48;19.90;64.00
5408;DHT22;2727;53.582;9.946;2022-07-29T04:26:47;19.90;63.90
5408;DHT22;2727;53.582;9.946;2022-07-29T04:27:46;19.90;64.00
5408;DHT22;2727;53.582;9.946;2022-07-29T04:28:59;19.90;64.00
5408;DHT22;2727;53.582;9.946;2022-07-29T04:29:58;19.90;64.00
5408;DHT22;2727;53.582;9.946;2022-07-29T04:30:56;19.90;63.90
5408;DHT22;2727;53.582;9.946;2022-07-29T04:31:55;19.90;64.00
5408;DHT22;2727;53.582;9.946;2022-07-29T04:32:53;19.90;64.00
5408;DHT22;2727;53.582;9.946;2022-07-29T04:33:52;19.90;63.90
5408;DHT22;2727;53.582;9.946;2022-07-29T04:34:50;19.90;63.90
5408;DHT22;2727;53.582;9.946;2022-07-29T04:35:49;19.90;64.00
5408;DHT22;2727;53.582;9.946;2022-07-29T04:36:47;19.90;64.00
5408;DHT22;2727;53.582;9.946;2022-07-29T04:37:46;19.90;64.00
5408;DHT22;2727;53.582;9.946;2022-07-29T04:38:44;19.90;64.00
5408;DHT22;2727;53.582;9.946;2022-07-29T04:39:43;19.90;63.90
5408;DHT22;2727;53.582;9.946;2022-07-29T04:40:41;19.90;64.00
5408;DHT22;2727;53.582;9.946;2022-07-29T04:41:40;19.90;64.00
5408;DHT22;2727;53.582;9.946;2022-07-29T04:42:38;19.90;64.00
5408;DHT22;2727;53.582;9.946;2022-07-29T04:43:37;19.90;64.00
5408;DHT22;2727;53.582;9.946;2022-07-29T04:44:35;19.90;63.90
5408;DHT22;2727;53.582;9.946;2022-07-29T04:45:34;19.90;64.00
5408;DHT22;2727;53.582;9.946;2022-07-29T04:46:32;19.90;64.00
5408;DHT22;2727;53.582;9.946;2022-07-29T04:47:31;19.90;64.00
5408;DHT22;2727;53.582;9.946;2022-07-29T04:48:30;19.90;64.00
5408;DHT22;2727;53.582;9.946;2022-07-29T04:49:28;19.90;63.90
5408;DHT22;2727;53.582;9.946;2022-07-29T04:50:27;19.90;64.00
5408;DHT22;2727;53.582;9.946;2022-07-29T04:51:25;19.90;64.60
5408;DHT22;2727;53.582;9.946;2022-07-29T04:52:24;19.90;64.00
5408;DHT22;2727;53.582;9.946;2022-07-29T04:53:22;19.90;64.00
5408;DHT22;2727;53.582;9.946;2022-07-29T04:54:21;19.90;64.00
5408;DHT22;2727;53.582;9.946;2022-07-29T04:55:19;19.90;64.70
5408;DHT22;2727;53.582;9.946;2022-07-29T04:56:18;19.90;64.00
5408;DHT22;2727;53.582;9.946;2022-07-29T04:57:16;20.00;64.10
5408;DHT22;2727;53.582;9.946;2022-07-29T04:58:15;19.90;63.90
5408;DHT22;2727;53.582;9.946;2022-07-29T04:59:13;20.00;64.00
5408;DHT22;2727;53.582;9.946;2022-07-29T05:00:12;19.90;64.00
5408;DHT22;2727;53.582;9.946;2022-07-29T05:01:10;19.90;64.00
5408;DHT22;2727;53.582;9.946;2022-07-29T05:02:09;19.90;63.90
5408;DHT22;2727;53.582;9.946;2022-07-29T05:03:07;19.90;63.90
5408;DHT22;2727;53.582;9.946;2022-07-29T05:04:06;19.90;63.90
5408;DHT22;2727;53.582;9.946;2022-07-29T05:05:04;19.90;64.30
5408;DHT22;2727;53.582;9.946;2022-07-29T05:06:03;19.90;63.90
5408;DHT22;2727;53.582;9.946;2022-07-29T05:07:01;19.90;63.90
5408;DHT22;2727;53.582;9.946;2022-07-29T05:08:01;19.90;63.90
5408;DHT22;2727;53.582;9.946;2022-07-29T05:08:59;19.90;64.00
5408;DHT22;2727;53.582;9.946;2022-07-29T05:09:58;19.90;63.90
5408;DHT22;2727;53.582;9.946;2022-07-29T05:10:56;20.00;64.00
5408;DHT22;2727;53.582;9.946;2022-07-29T05:11:55;19.90;63.90
5408;DHT22;2727;53.582;9.946;2022-07-29T05:12:53;20.00;64.00
5408;DHT22;2727;53.582;9.946;2022-07-29T05:13:52;19.90;63.90
5408;DHT22;2727;53.582;9.946;2022-07-29T05:14:50;20.00;64.00
5408;DHT22;2727;53.582;9.946;2022-07-29T05:15:49;20.00;64.00
5408;DHT22;2727;53.582;9.946;2022-07-29T05:16:48;20.00;64.10
5408;DHT22;2727;53.582;9.946;2022-07-29T05:17:49;20.00;64.00
5408;DHT22;2727;53.582;9.946;2022-07-29T05:18:47;20.00;64.00
5408;DHT22;2727;53.582;9.946;2022-07-29T05:19:46;19.90;63.90
5408;DHT22;2727;53.582;9.946;2022-07-29T05:20:44;20.00;64.00
5408;DHT22;2727;53.582;9.946;2022-07-29T05:21:44;20.00;64.00
5408;DHT22;2727;53.582;9.946;2022-07-29T05:22:42;20.00;64.00
5408;DHT22;2727;53.582;9.946;2022-07-29T05:23:41;20.00;64.00
5408;DHT22;2727;53.582;9.946;2022-07-29T05:24:39;20.00;64.00
5408;DHT22;2727;53.582;9.946;2022-07-29T05:25:38;20.00;64.70
5408;DHT22;2727;53.582;9.946;2022-07-29T05:26:37;20.00;64.00
5408;DHT22;2727;53.582;9.946;2022-07-29T05:27:36;20.00;64.00
5408;DHT22;2727;53.582;9.946;2022-07-29T05:28:34;20.00;64.00
5408;DHT22;2727;53.582;9.946;2022-07-29T05:29:33;20.00;64.00
5408;DHT22;2727;53.582;9.946;2022-07-29T05:30:31;20.00;64.00
5408;DHT22;2727;53.582;9.946;2022-07-29T05:31:30;20.00;64.00
5408;DHT22;2727;53.582;9.946;2022-07-29T05:32:29;20.00;64.00
5408;DHT22;2727;53.582;9.946;2022-07-29T05:33:27;20.00;64.10
5408;DHT22;2727;53.582;9.946;2022-07-29T05:34:26;20.00;64.00
5408;DHT22;2727;53.582;9.946;2022-07-29T05:35:24;20.00;64.00
5408;DHT22;2727;53.582;9.946;2022-07-29T05:36:22;20.00;64.00
5408;DHT22;2727;53.582;9.946;2022-07-29T05:37:21;20.00;64.00
5408;DHT22;2727;53.582;9.946;2022-07-29T05:38:20;20.00;64.10
5408;DHT22;2727;53.582;9.946;2022-07-29T05:39:18;20.00;64.10
5408;DHT22;2727;53.582;9.946;2022-07-29T05:40:17;20.00;64.00
5408;DHT22;2727;53.582;9.946;2022-07-29T05:41:15;20.00;64.00
5408;DHT22;2727;53.582;9.946;2022-07-29T05:42:14;20.00;64.10
5408;DHT22;2727;53.582;9.946;2022-07-29T05:43:13;20.00;64.10
5408;DHT22;2727;53.582;9.946;2022-07-29T05:44:11;20.00;64.20
5408;DHT22;2727;53.582;9.946;2022-07-29T05:45:11;20.00;64.30
5408;DHT22;2727;53.582;9.946;2022-07-29T05:46:10;20.00;64.30
5408;DHT22;2727;53.582;9.946;2022-07-29T05:47:08;20.00;64.30
5408;DHT22;2727;53.582;9.946;2022-07-29T05:48:06;20.00;64.40
5408;DHT22;2727;53.582;9.946;2022-07-29T05:49:05;20.00;64.40
5408;DHT22;2727;53.582;9.946;2022-07-29T05:50:04;20.00;64.40
5408;DHT22;2727;53.582;9.946;2022-07-29T05:51:03;20.00;64.40
5408;DHT22;2727;53.582;9.946;2022-07-29T05:52:01;20.00;64.50
5408;DHT22;2727;53.582;9.946;2022-07-29T05:53:00;20.00;64.50
5408;DHT22;2727;53.582;9.946;2022-07-29T05:53:58;20.00;64.50
5408;DHT22;2727;53.582;9.946;2022-07-29T05:54:57;20.00;64.50
5408;DHT22;2727;53.582;9.946;2022-07-29T05:55:55;20.00;64.50
5408;DHT22;2727;53.582;9.946;2022-07-29T05:56:54;20.10;64.70
5408;DHT22;2727;53.582;9.946;2022-07-29T05:57:53;20.00;64.50
5408;DHT22;2727;53.582;9.946;2022-07-29T05:58:52;20.10;64.50
5408;DHT22;2727;53.582;9.946;2022-07-29T05:59:50;20.10;64.50
5408;DHT22;2727;53.582;9.946;2022-07-29T06:00:49;20.10;64.50
5408;DHT22;2727;53.582;9.946;2022-07-29T06:01:47;20.10;64.50
5408;DHT22;2727;53.582;9.946;2022-07-29T06:02:46;20.10;64.50
5408;DHT22;2727;53.582;9.946;2022-07-29T06:03:44;20.10;64.50
5408;DHT22;2727;53.582;9.946;2022-07-29T06:04:43;20.10;64.50
5408;DHT22;2727;53.582;9.946;2022-07-29T06:05:41;20.10;64.50
5408;DHT22;2727;53.582;9.946;2022-07-29T06:06:40;20.10;64.50
5408;DHT22;2727;53.582;9.946;2022-07-29T06:07:38;20.10;64.50
5408;DHT22;2727;53.582;9.946;2022-07-29T06:08:37;20.10;64.40
5408;DHT22;2727;53.582;9.946;2022-07-29T06:09:35;20.10;64.40
5408;DHT22;2727;53.582;9.946;2022-07-29T06:10:34;20.10;64.40
5408;DHT22;2727;53.582;9.946;2022-07-29T06:11:33;20.10;64.50
5408;DHT22;2727;53.582;9.946;2022-07-29T06:12:31;20.10;64.50
5408;DHT22;2727;53.582;9.946;2022-07-29T06:13:30;20.10;64.40
5408;DHT22;2727;53.582;9.946;2022-07-29T06:14:28;20.10;64.50
5408;DHT22;2727;53.582;9.946;2022-07-29T06:15:27;20.10;64.30
5408;DHT22;2727;53.582;9.946;2022-07-29T06:16:25;20.10;64.40
5408;DHT22;2727;53.582;9.946;2022-07-29T06:17:24;20.10;64.40
5408;DHT22;2727;53.582;9.946;2022-07-29T06:18:23;20.10;64.40
5408;DHT22;2727;53.582;9.946;2022-07-29T06:19:22;20.10;64.30
5408;DHT22;2727;53.582;9.946;2022-07-29T06:20:20;20.20;64.40
5408;DHT22;2727;53.582;9.946;2022-07-29T06:21:19;20.20;64.40
5408;DHT22;2727;53.582;9.946;2022-07-29T06:22:17;20.20;64.30
5408;DHT22;2727;53.582;9.946;2022-07-29T06:23:16;20.20;64.30
5408;DHT22;2727;53.582;9.946;2022-07-29T06:24:15;20.20;64.30
5408;DHT22;2727;53.582;9.946;2022-07-29T06:25:13;20.20;64.20
5408;DHT22;2727;53.582;9.946;2022-07-29T06:26:12;20.10;64.10
5408;DHT22;2727;53.582;9.946;2022-07-29T06:27:11;20.20;64.20
5408;DHT22;2727;53.582;9.946;2022-07-29T06:28:09;20.20;64.20
5408;DHT22;2727;53.582;9.946;2022-07-29T06:29:08;20.20;64.20
5408;DHT22;2727;53.582;9.946;2022-07-29T06:30:08;20.20;64.90
5408;DHT22;2727;53.582;9.946;2022-07-29T06:31:08;20.20;64.30
5408;DHT22;2727;53.582;9.946;2022-07-29T06:32:07;20.20;64.30
5408;DHT22;2727;53.582;9.946;2022-07-29T06:33:07;20.20;64.30
5408;DHT22;2727;53.582;9.946;2022-07-29T06:34:05;20.10;64.20
5408;DHT22;2727;53.582;9.946;2022-07-29T06:35:04;20.20;64.40
5408;DHT22;2727;53.582;9.946;2022-07-29T06:36:03;20.20;64.50
5408;DHT22;2727;53.582;9.946;2022-07-29T06:37:08;20.20;64.60
5408;DHT22;2727;53.582;9.946;2022-07-29T06:38:07;20.20;64.80
5408;DHT22;2727;53.582;9.946;2022-07-29T06:39:06;20.10;64.70
5408;DHT22;2727;53.582;9.946;2022-07-29T06:40:05;20.20;65.00
5408;DHT22;2727;53.582;9.946;2022-07-29T06:41:22;20.20;65.00
5408;DHT22;2727;53.582;9.946;2022-07-29T06:42:21;20.20;65.20
5408;DHT22;2727;53.582;9.946;2022-07-29T06:43:20;20.20;65.30
5408;DHT22;2727;53.582;9.946;2022-07-29T06:44:19;20.20;65.40